Time;durP1;ratioP1;P1;durP2;ratioP2;P2;SDS_P1;SDS_P2;PMS_P1;PMS_P2;Temp;Humidity;BMP_temperature;BMP_pressure;BME280_temperature;BME280_humidity;BME280_pressure;Samples;Min_cycle;Max_cycle;Signal;HPM_P1;HPM_P2
2021/03/08 00:00:41;;;;;;;26.33;16.12;;;;;;;1.38;66.03;99368.63;1765962;81;21154;-74
2021/03/08 00:03:10;;;;;;;26.40;15.70;;;;;;;1.37;64.62;99372.08;1766638;81;21159;-74
2021/03/08 00:05:38;;;;;;;25.70;14.98;;;;;;;1.38;66.58;99359.96;1767183;81;21154;-72
2021/03/08 00:08:08;;;;;;;26.57;14.83;;;;;;;1.36;65.24;99360.45;1766446;81;21609;-73
2021/03/08 00:10:39;;;;;;;25.82;14.75;;;;;;;1.34;64.67;99359.16;1766071;81;22270;-75
2021/03/08 00:13:07;;;;;;;30.70;14.58;;;;;;;1.33;66.68;99355.27;1771958;80;21218;-74
2021/03/08 00:15:37;;;;;;;29.18;16.50;;;;;;;1.31;64.58;99357.91;1773610;80;21190;-74
2021/03/08 00:18:05;;;;;;;26.23;15.50;;;;;;;1.34;65.89;99349.22;1773585;80;21151;-73
2021/03/08 00:20:34;;;;;;;24.23;14.20;;;;;;;1.32;66.48;99350.53;1773838;80;21550;-73
2021/03/08 00:23:05;;;;;;;26.70;15.60;;;;;;;1.33;64.89;99344.89;1775354;80;21427;-72
2021/03/08 00:25:37;;;;;;;29.32;15.78;;;;;;;1.31;66.29;99346.23;1775168;80;21186;-73
2021/03/08 00:28:05;;;;;;;30.32;16.55;;;;;;;1.29;65.57;99341.50;1775261;80;21171;-73
2021/03/08 00:30:33;;;;;;;26.48;15.50;;;;;;;1.30;65.07;99334.12;1775031;80;21170;-73
2021/03/08 00:33:01;;;;;;;26.10;14.70;;;;;;;1.31;67.41;99334.56;1775153;80;21618;-72
2021/03/08 00:35:29;;;;;;;27.32;14.55;;;;;;;1.32;65.09;99331.08;1775057;80;21379;-74
2021/03/08 00:37:57;;;;;;;29.87;15.93;;;;;;;1.32;65.96;99322.00;1775004;80;21186;-72
2021/03/08 00:40:25;;;;;;;28.07;15.72;;;;;;;1.30;67.42;99325.05;1774961;80;21635;-73
2021/03/08 00:42:54;;;;;;;25.15;13.98;;;;;;;1.31;65.41;99317.70;1774984;80;21162;-72
2021/03/08 00:45:22;;;;;;;22.87;14.63;;;;;;;1.33;68.80;99315.06;1775064;80;21175;-71
2021/03/08 00:48:10;;;;;;;27.20;14.63;;;;;;;1.36;65.59;99311.16;1834949;78;22893;-72
2021/03/08 00:50:39;;;;;;;26.40;15.15;;;;;;;1.27;65.06;99310.83;1807238;79;21159;-73
2021/03/08 00:53:08;;;;;;;29.07;15.23;;;;;;;1.25;65.65;99302.20;1807585;79;23590;-73
2021/03/08 00:55:37;;;;;;;26.68;15.00;;;;;;;1.24;65.08;99306.53;1807281;79;21056;-73
2021/03/08 00:58:05;;;;;;;25.08;13.32;;;;;;;1.24;65.59;99307.83;1807083;79;21167;-72
2021/03/08 01:00:34;;;;;;;24.18;14.28;;;;;;;1.23;65.95;99309.14;1781330;79;21181;-71
2021/03/08 01:03:05;;;;;;;23.22;14.28;;;;;;;1.21;65.33;99296.17;1776038;80;21179;-72
2021/03/08 01:05:33;;;;;;;25.72;14.75;;;;;;;1.23;69.11;99297.02;1776328;80;22222;-71
2021/03/08 01:08:05;;;;;;;23.92;14.45;;;;;;;1.22;66.08;99295.73;1776699;80;21226;-72
2021/03/08 01:10:37;;;;;;;24.25;13.80;;;;;;;1.26;66.19;99290.93;1776484;80;21838;-72
2021/03/08 01:13:14;;;;;;;23.77;14.05;;;;;;;1.24;66.64;99292.27;1775583;80;21190;-71
2021/03/08 01:15:42;;;;;;;24.60;14.43;;;;;;;1.22;65.36;99283.65;1775431;79;21550;-72
2021/03/08 01:18:10;;;;;;;22.55;14.13;;;;;;;1.24;66.15;99291.39;1775614;80;21234;-72
2021/03/08 01:20:38;;;;;;;24.82;13.90;;;;;;;1.21;67.13;99284.95;1775487;80;21598;-72
2021/03/08 01:23:06;;;;;;;23.15;14.25;;;;;;;1.21;65.83;99278.47;1775693;80;21174;-72
2021/03/08 01:25:35;;;;;;;25.35;14.58;;;;;;;1.23;68.31;99278.02;1775646;80;21664;-74
2021/03/08 01:28:06;;;;;;;25.75;14.47;;;;;;;1.22;65.96;99286.66;1775720;80;21159;-73
2021/03/08 01:30:39;;;;;;;21.35;13.35;;;;;;;1.20;65.97;99277.62;1773223;79;21363;-73
2021/03/08 01:33:08;;;;;;;25.92;14.45;;;;;;;1.21;68.32;99274.58;1775483;80;21154;-74
2021/03/08 01:35:37;;;;;;;24.43;14.33;;;;;;;1.20;65.87;99274.17;1775581;80;21159;-73
2021/03/08 01:38:04;;;;;;;27.17;14.55;;;;;;;1.20;66.42;99273.73;1775607;80;21659;-74
2021/03/08 01:40:38;;;;;;;26.00;14.25;;;;;;;1.19;66.94;99267.25;1775466;80;21171;-74
2021/03/08 01:43:08;;;;;;;21.80;13.95;;;;;;;1.20;66.11;99267.69;1775612;79;21255;-73
2021/03/08 01:45:38;;;;;;;26.33;12.93;;;;;;;1.23;68.30;99276.72;1775421;79;21171;-72
2021/03/08 01:48:08;;;;;;;27.52;14.98;;;;;;;1.20;67.35;99263.80;1771759;80;21163;-72
2021/03/08 01:50:41;;;;;;;22.80;13.25;;;;;;;1.19;66.35;99268.55;1771160;81;21214;-71
2021/03/08 01:53:11;;;;;;;24.77;14.95;;;;;;;1.16;67.04;99271.19;1771342;81;21591;-72
2021/03/08 01:55:39;;;;;;;25.10;15.55;;;;;;;1.15;66.16;99272.05;1771792;80;21267;-71
2021/03/08 01:58:07;;;;;;;21.25;13.43;;;;;;;1.16;66.82;99264.70;1771799;79;21571;-72
2021/03/08 02:00:39;;;;;;;25.00;14.30;;;;;;;1.17;68.60;99267.70;1742912;81;21206;-72
2021/03/08 02:03:25;;;;;;;24.55;15.25;;;;;;;1.19;66.68;99263.36;1770686;80;21127;-72
2021/03/08 02:05:54;;;;;;;22.07;13.90;;;;;;;1.20;68.41;99259.91;1770405;81;21124;-73
2021/03/08 02:08:23;;;;;;;23.27;14.55;;;;;;;1.19;68.84;99256.88;1770651;80;21373;-72
2021/03/08 02:10:51;;;;;;;23.25;13.62;;;;;;;1.18;66.56;99261.66;1770505;81;21647;-72
2021/03/08 02:13:44;;;;;;;25.40;13.60;;;;;;;1.16;70.93;99267.30;1770540;79;22202;-72
2021/03/08 02:16:29;;;;;;;27.42;13.78;;;;;;;1.16;67.04;99260.81;1770513;80;21191;-71
2021/03/08 02:19:30;;;;;;;25.30;13.25;;;;;;;1.16;66.99;99262.11;1770603;81;21099;-71
2021/03/08 02:22:25;;;;;;;22.57;13.83;;;;;;;1.14;69.41;99262.57;1746295;81;21379;-71
2021/03/08 02:25:31;;;;;;;25.90;15.23;;;;;;;1.12;68.78;99254.80;1740058;82;21961;-72
2021/03/08 02:28:29;;;;;;;21.97;13.72;;;;;;;1.13;67.06;99264.73;1739716;82;21186;-71
2021/03/08 02:31:02;;;;;;;22.17;12.90;;;;;;;1.10;67.38;99261.73;1739900;81;21139;-74
2021/03/08 02:33:31;;;;;;;21.95;14.03;;;;;;;1.09;69.24;99268.26;1701965;84;21202;-73
2021/03/08 02:36:03;;;;;;;24.32;13.72;;;;;;;1.03;67.51;99246.69;1675890;84;21205;-71
2021/03/08 02:38:38;;;;;;;21.33;14.00;;;;;;;1.11;67.75;99260.03;1739994;82;21622;-72
2021/03/08 02:41:18;;;;;;;26.73;15.35;;;;;;;1.12;68.92;99266.91;1701845;84;21189;-72
2021/03/08 02:43:51;;;;;;;24.35;13.45;;;;;;;1.10;67.06;99256.99;1739640;82;21203;-71
2021/03/08 02:46:32;;;;;;;24.90;14.05;;;;;;;1.10;67.40;99249.22;1739843;82;21155;-71
2021/03/08 02:49:02;;;;;;;25.25;14.40;;;;;;;1.07;68.92;99248.81;1702047;84;21343;-72
2021/03/08 02:51:32;;;;;;;26.27;13.58;;;;;;;1.07;67.08;99247.97;1701996;84;21626;-75
2021/03/08 02:54:02;;;;;;;25.30;13.78;;;;;;;1.10;69.02;99250.06;1702258;83;21217;-75
2021/03/08 02:56:33;;;;;;;29.57;14.73;;;;;;;1.07;69.14;99250.12;1739918;82;21199;-73
2021/03/08 02:59:07;;;;;;;24.77;13.40;;;;;;;1.10;67.57;99244.03;1739943;82;21686;-73
2021/03/08 03:01:37;;;;;;;25.17;15.00;;;;;;;1.07;69.66;99245.38;1701921;84;21251;-73
2021/03/08 03:04:05;;;;;;;23.67;15.18;;;;;;;1.08;68.43;99245.78;1713299;82;21434;-72
2021/03/08 03:06:38;;;;;;;24.77;15.03;;;;;;;1.09;69.05;99257.89;1739710;82;21203;-73
2021/03/08 03:09:10;;;;;;;24.12;14.95;;;;;;;1.05;71.03;99259.20;1702040;83;21614;-73
2021/03/08 03:11:40;;;;;;;25.65;16.10;;;;;;;1.00;70.68;99257.11;1739692;82;21191;-76
2021/03/08 03:14:09;;;;;;;27.85;16.75;;;;;;;0.95;72.18;99249.83;1701990;84;21437;-75
2021/03/08 03:16:43;;;;;;;28.90;17.00;;;;;;;0.89;73.24;99255.08;1712859;82;21223;-75
2021/03/08 03:19:11;;;;;;;29.98;16.87;;;;;;;0.82;73.15;99257.33;1740040;82;21203;-76
2021/03/08 03:21:42;;;;;;;28.70;15.53;;;;;;;0.78;75.51;99258.23;1672559;84;21177;-75
2021/03/08 03:24:10;;;;;;;27.27;17.05;;;;;;;0.74;74.67;99266.94;1660620;85;21187;-74
2021/03/08 03:26:39;;;;;;;27.22;15.65;;;;;;;0.72;75.31;99264.80;1684095;85;21389;-74
2021/03/08 03:29:08;;;;;;;29.00;17.62;;;;;;;0.68;76.13;99265.70;1684022;83;21197;-75
2021/03/08 03:31:40;;;;;;;31.15;16.73;;;;;;;0.60;75.66;99264.05;1684049;83;21213;-76
2021/03/08 03:34:09;;;;;;;25.92;15.65;;;;;;;0.57;76.78;99260.63;1684060;83;21169;-74
2021/03/08 03:36:37;;;;;;;31.65;17.75;;;;;;;0.52;76.97;99260.67;1683998;85;21201;-75
2021/03/08 03:39:08;;;;;;;29.77;16.37;;;;;;;0.51;76.83;99258.97;1684233;83;22279;-73
2021/03/08 03:41:39;;;;;;;29.15;16.62;;;;;;;0.49;77.90;99258.12;1666279;85;21188;-74
2021/03/08 03:44:08;;;;;;;31.40;17.48;;;;;;;0.46;76.47;99263.34;1684180;85;21213;-74
2021/03/08 03:46:44;;;;;;;28.15;16.67;;;;;;;0.43;76.30;99260.77;1684387;85;22216;-76
2021/03/08 03:49:15;;;;;;;32.58;16.82;;;;;;;0.45;76.94;99262.91;1687886;85;21118;-75
2021/03/08 03:51:43;;;;;;;27.82;16.50;;;;;;;0.45;76.08;99256.42;1695776;82;21212;-75
2021/03/08 03:54:10;;;;;;;32.75;17.23;;;;;;;0.47;76.75;99256.42;1729893;82;21200;-74
2021/03/08 03:56:51;;;;;;;26.12;16.30;;;;;;;0.49;76.74;99258.56;1768757;81;21226;-72
2021/03/08 03:59:24;;;;;;;32.55;18.17;;;;;;;0.49;76.41;99256.83;1719296;81;21199;-74
2021/03/08 04:02:03;;;;;;;31.57;16.42;;;;;;;0.49;77.41;99260.71;1768672;81;21210;-72
2021/03/08 04:04:41;;;;;;;29.27;17.42;;;;;;;0.49;77.19;99263.75;1768943;81;22273;-74
2021/03/08 04:07:09;;;;;;;28.73;16.45;;;;;;;0.53;77.05;99254.63;1768928;81;21155;-75
2021/03/08 04:09:38;;;;;;;30.12;16.97;;;;;;;0.54;78.29;99256.33;1741212;81;21131;-74
2021/03/08 04:12:08;;;;;;;27.15;14.33;;;;;;;0.52;76.58;99250.30;1768805;81;21183;-75
2021/03/08 04:14:38;;;;;;;27.97;15.70;;;;;;;0.51;76.35;99247.75;1769317;81;22080;-73
2021/03/08 04:17:07;;;;;;;30.85;18.55;;;;;;;0.50;78.36;99253.79;1741401;81;21442;-75
2021/03/08 04:19:36;;;;;;;27.85;16.65;;;;;;;0.48;77.11;99255.09;1768896;81;21297;-74
2021/03/08 04:22:06;;;;;;;30.68;17.00;;;;;;;0.48;78.88;99257.68;1742334;81;21341;-75
2021/03/08 04:24:37;;;;;;;32.28;18.02;;;;;;;0.47;78.70;99258.57;1770645;81;21178;-73
2021/03/08 04:27:06;;;;;;;27.17;16.32;;;;;;;0.43;79.18;99264.64;1743331;81;21167;-74
2021/03/08 04:29:39;;;;;;;28.17;16.80;;;;;;;0.39;80.05;99264.25;1770673;81;21227;-75
2021/03/08 04:32:11;;;;;;;30.95;17.82;;;;;;;0.38;80.06;99269.02;1768890;81;21214;-74
2021/03/08 04:34:39;;;;;;;26.33;15.75;;;;;;;0.38;80.83;99262.55;1770565;81;21179;-75
2021/03/08 04:37:44;;;;;;;30.80;17.13;;;;;;;0.43;81.78;99263.35;1775058;79;22636;-74
2021/03/08 04:40:14;;;;;;;32.95;19.35;;;;;;;0.40;81.33;99265.98;1727080;82;21160;-74
2021/03/08 04:42:43;;;;;;;28.12;16.75;;;;;;;0.32;81.34;99262.59;1717941;83;22343;-75
2021/03/08 04:45:12;;;;;;;30.50;17.42;;;;;;;0.30;81.92;99265.62;1718048;83;21203;-75
2021/03/08 04:47:42;;;;;;;30.40;17.32;;;;;;;0.30;81.52;99267.81;1718027;83;21199;-74
2021/03/08 04:50:15;;;;;;;30.70;17.55;;;;;;;0.29;82.52;99270.41;1689956;83;21187;-69
2021/03/08 04:52:49;;;;;;;30.40;18.37;;;;;;;0.24;82.18;99267.00;1700859;83;21215;-72
2021/03/08 04:55:17;;;;;;;28.47;17.35;;;;;;;0.25;81.70;99266.12;1687622;84;21458;-66
2021/03/08 04:57:45;;;;;;;31.82;19.10;;;;;;;0.28;82.40;99266.11;1702409;83;21206;-72
2021/03/08 05:00:14;;;;;;;30.57;16.90;;;;;;;0.26;81.50;99269.14;1703332;83;22132;-72
2021/03/08 05:02:43;;;;;;;31.05;18.65;;;;;;;0.27;81.59;99261.78;1706636;83;22469;-71
2021/03/08 05:05:14;;;;;;;30.92;17.23;;;;;;;0.29;81.70;99266.52;1705922;83;21190;-70
2021/03/08 05:07:42;;;;;;;27.70;15.25;;;;;;;0.30;80.94;99266.92;1702115;83;22273;-71
2021/03/08 05:10:15;;;;;;;31.90;17.57;;;;;;;0.19;81.60;99247.18;1698603;83;21190;-72
2021/03/08 05:12:44;;;;;;;26.60;16.02;;;;;;;0.28;81.05;99259.63;1709214;83;21087;-72
2021/03/08 05:15:13;;;;;;;26.60;16.55;;;;;;;0.32;80.73;99271.66;1703813;83;21764;-71
2021/03/08 05:17:41;;;;;;;25.27;14.18;;;;;;;0.34;81.26;99266.88;1702901;83;21191;-72
2021/03/08 05:20:14;;;;;;;26.33;15.95;;;;;;;0.35;80.57;99276.39;1702545;83;22291;-74
2021/03/08 05:22:42;;;;;;;27.58;17.07;;;;;;;0.40;80.86;99284.11;1705628;83;21223;-75
2021/03/08 05:25:12;;;;;;;32.33;18.17;;;;;;;0.43;80.86;99288.41;1703145;83;21179;-71
2021/03/08 05:27:40;;;;;;;27.13;15.55;;;;;;;0.45;80.28;99282.33;1703707;83;21231;-70
2021/03/08 05:30:17;;;;;;;28.40;16.73;;;;;;;0.48;81.04;99281.00;1703017;83;21709;-71
2021/03/08 05:32:59;;;;;;;30.27;16.37;;;;;;;0.47;80.46;99296.13;1698876;83;21375;-72
2021/03/08 05:35:28;;;;;;;;;;;;;;;0.47;80.65;99305.20;1705469;82;21205;-72
2021/03/08 05:37:56;;;;;;;27.52;16.32;;;;;;;0.45;80.45;99303.05;1692628;83;20664;-70
2021/03/08 05:40:40;;;;;;;24.18;13.95;;;;;;;0.42;80.55;99310.87;1674072;84;21246;-71
2021/03/08 05:43:11;;;;;;;25.23;13.70;;;;;;;0.34;79.81;99315.24;1681227;84;21175;-72
2021/03/08 05:45:59;;;;;;;22.73;12.40;;;;;;;0.26;79.44;99321.79;1686434;84;21333;-71
2021/03/08 05:49:06;;;;;;;20.55;11.45;;;;;;;0.22;78.98;99330.89;1696185;84;21176;-71
2021/03/08 05:52:30;;;;;;;16.15;10.13;;;;;;;0.18;78.67;99330.92;1691220;84;21617;-70
2021/03/08 05:55:32;;;;;;;15.80;9.38;;;;;;;0.17;78.45;99334.37;1702387;82;21199;-71
2021/03/08 05:58:11;;;;;;;12.47;7.50;;;;;;;0.14;77.28;99339.58;1704365;84;21143;-70
2021/03/08 06:01:23;;;;;;;17.57;7.45;;;;;;;0.09;76.26;99355.59;1698794;84;21392;-70
2021/03/08 06:04:16;;;;;;;;;;;;;;;0.06;75.79;99353.00;1684166;84;21630;-69
2021/03/08 06:07:27;;;;;;;11.35;4.97;;;;;;;0.03;75.04;99362.53;1699622;83;20287;-70
2021/03/08 06:09:55;;;;;;;;;;;;;;;-0.02;74.54;99364.72;1684636;84;21200;-68
2021/03/08 06:12:28;;;;;;;7.95;4.10;;;;;;;-0.08;74.29;99368.63;1683995;84;20289;-69
2021/03/08 06:15:02;;;;;;;10.82;4.80;;;;;;;-0.07;74.54;99372.06;1686299;84;21829;-69
2021/03/08 06:17:30;;;;;;;5.65;3.87;;;;;;;-0.06;75.65;99377.69;1658759;85;21239;-69
2021/03/08 06:19:58;;;;;;;6.97;3.50;;;;;;;-0.03;74.87;99382.83;1700796;84;21198;-70
2021/03/08 06:22:25;;;;;;;4.80;3.12;;;;;;;0.01;74.88;99392.30;1703392;84;21187;-71
2021/03/08 06:24:53;;;;;;;7.70;2.90;;;;;;;0.01;74.90;99394.90;1704703;84;21180;-70
2021/03/08 06:27:21;;;;;;;6.40;3.08;;;;;;;0.02;73.86;99394.02;1698955;84;21810;-69
2021/03/08 06:29:48;;;;;;;6.85;3.05;;;;;;;0.04;75.27;99397.45;1704752;82;21216;-70
2021/03/08 06:32:16;;;;;;;6.40;2.70;;;;;;;0.06;73.84;99402.63;1692123;84;21515;-71
2021/03/08 06:34:44;;;;;;;5.55;2.77;;;;;;;0.06;73.55;99402.19;1694959;84;21179;-68
2021/03/08 06:37:13;;;;;;;4.05;2.17;;;;;;;0.09;73.39;99411.26;1688613;83;21163;-69
2021/03/08 06:39:44;;;;;;;4.53;2.10;;;;;;;0.12;72.51;99411.23;1699907;83;21392;-70
2021/03/08 06:42:15;;;;;;;4.37;2.15;;;;;;;0.17;72.95;99414.64;1701327;84;21202;-72
2021/03/08 06:44:48;;;;;;;3.22;1.60;;;;;;;0.14;71.39;99405.61;1698658;84;21808;-70
2021/03/08 06:47:18;;;;;;;4.35;1.72;;;;;;;0.12;69.45;99408.64;1700327;84;21178;-69
2021/03/08 06:49:46;;;;;;;5.03;1.92;;;;;;;0.11;71.58;99406.90;1701524;84;21232;-70
2021/03/08 06:52:15;;;;;;;6.72;2.00;;;;;;;0.13;70.05;99418.11;1701190;84;21416;-71
2021/03/08 06:55:03;;;;;;;3.27;1.90;;;;;;;0.16;69.29;99411.64;1694582;82;21188;-71
2021/03/08 06:57:34;;;;;;;4.75;2.00;;;;;;;0.23;69.49;99412.88;1697574;84;21236;-70
2021/03/08 07:00:09;;;;;;;4.08;1.92;;;;;;;0.28;68.69;99412.43;1687648;83;21184;-70
2021/03/08 07:02:45;;;;;;;3.75;1.80;;;;;;;0.31;68.59;99414.99;1691835;84;21228;-72
2021/03/08 07:05:26;;;;;;;5.20;1.95;;;;;;;0.34;68.86;99408.48;1698655;84;21348;-69
2021/03/08 07:07:59;;;;;;;;;;;;;;;0.40;68.11;99404.56;1703062;83;21239;-68
2021/03/08 07:10:40;;;;;;;4.75;2.50;;;;;;;0.52;67.92;99402.31;1685529;84;20298;-70
2021/03/08 07:13:10;;;;;;;;;;;;;;;0.58;68.80;99399.69;1704829;83;21201;-70
2021/03/08 07:15:56;;;;;;;6.28;2.42;;;;;;;0.70;66.60;99399.56;1699493;84;20415;-70
2021/03/08 07:18:25;;;;;;;4.30;2.08;;;;;;;0.80;68.08;99393.86;1695692;83;21450;-69
2021/03/08 07:20:54;;;;;;;5.40;2.10;;;;;;;0.91;68.05;99402.40;1700344;84;21846;-70
2021/03/08 07:23:25;;;;;;;3.80;2.10;;;;;;;0.97;65.87;99404.09;1643292;86;21264;-68
2021/03/08 07:26:05;;;;;;;;;;;;;;;1.02;66.40;99410.08;1684164;84;21173;-69
2021/03/08 07:28:33;;;;;;;3.30;1.92;;;;;;;1.01;64.24;99409.64;1686302;84;20267;-69
2021/03/08 07:31:01;;;;;;;5.75;2.50;;;;;;;1.00;63.57;99418.31;1692785;84;22321;-68
2021/03/08 07:33:30;;;;;;;5.15;2.10;;;;;;;0.98;65.15;99411.83;1684489;83;21207;-69
2021/03/08 07:35:59;;;;;;;5.50;1.90;;;;;;;1.02;63.75;99414.82;1681353;84;21379;-67
2021/03/08 07:38:35;;;;;;;3.60;1.72;;;;;;;1.07;62.82;99417.81;1697974;83;21208;-69
2021/03/08 07:41:18;;;;;;;3.65;1.72;;;;;;;1.10;63.93;99421.66;1670389;85;21172;-67
2021/03/08 07:43:49;;;;;;;3.20;1.70;;;;;;;1.17;61.75;99422.02;1670462;85;21387;-69
2021/03/08 07:46:30;;;;;;;3.58;1.60;;;;;;;1.37;62.14;99421.37;1687393;84;21255;-67
2021/03/08 07:49:01;;;;;;;4.12;1.67;;;;;;;1.48;61.99;99433.39;1681194;84;21234;-69
2021/03/08 07:51:30;;;;;;;3.02;1.98;;;;;;;1.67;60.27;99422.75;1697406;83;21207;-69
2021/03/08 07:54:08;;;;;;;2.52;1.62;;;;;;;1.85;61.82;99416.47;1693159;83;21734;-69
2021/03/08 07:56:37;;;;;;;4.17;1.50;;;;;;;2.51;61.64;99419.88;1690692;84;22200;-70
2021/03/08 07:59:04;;;;;;;3.95;1.60;;;;;;;3.41;59.61;99407.03;1694153;84;21194;-70
2021/03/08 08:01:33;;;;;;;2.27;1.50;;;;;;;4.03;61.38;99410.98;1703068;84;21686;-68
2021/03/08 08:04:02;;;;;;;3.12;1.65;;;;;;;4.57;55.97;99407.53;1693690;84;21212;-70
2021/03/08 08:06:30;;;;;;;2.55;1.27;;;;;;;4.82;53.52;99403.88;1701170;83;21203;-70
2021/03/08 08:08:57;;;;;;;3.12;1.57;;;;;;;5.07;53.64;99407.63;1695128;84;22500;-69
2021/03/08 08:11:29;;;;;;;5.35;1.30;;;;;;;5.10;49.27;99405.77;1695030;83;21183;-68
2021/03/08 08:13:59;;;;;;;2.90;1.30;;;;;;;5.43;47.38;99414.93;1704176;84;21509;-70
2021/03/08 08:16:32;;;;;;;1.40;1.00;;;;;;;5.93;48.10;99406.08;1696415;84;21176;-72
2021/03/08 08:19:08;;;;;;;1.98;1.25;;;;;;;6.53;44.34;99399.48;1701357;84;21171;-69
2021/03/08 08:21:43;;;;;;;1.40;1.00;;;;;;;7.23;42.91;99407.61;1822978;76;28157;-70
2021/03/08 08:24:22;;;;;;;2.77;1.62;;;;;;;8.06;40.71;99398.03;1783147;79;21178;-70
2021/03/08 08:26:58;;;;;;;2.85;0.98;;;;;;;8.62;36.56;99399.34;1783736;80;21207;-71
2021/03/08 08:29:27;;;;;;;3.80;1.07;;;;;;;9.22;37.25;99395.53;1768157;80;22332;-72
2021/03/08 08:32:02;;;;;;;1.80;0.80;;;;;;;9.38;35.14;99420.69;1769398;80;21188;-70
2021/03/08 08:34:39;;;;;;;1.52;0.98;;;;;;;9.09;33.85;99419.30;1759761;80;21103;-68
2021/03/08 08:37:20;;;;;;;3.02;1.17;;;;;;;8.42;36.08;99415.91;1783037;79;21198;-69
2021/03/08 08:39:56;;;;;;;1.75;0.90;;;;;;;7.76;34.75;99417.92;1783328;80;21678;-71
2021/03/08 08:42:26;;;;;;;2.30;1.10;;;;;;;7.40;36.13;99407.47;1783178;80;21170;-70
2021/03/08 08:44:56;;;;;;;2.12;1.00;;;;;;;7.13;37.61;99414.05;1783811;79;21206;-69
2021/03/08 08:47:34;;;;;;;1.95;0.85;;;;;;;6.79;34.36;99421.75;1782752;80;21634;-69
2021/03/08 08:50:08;;;;;;;2.37;0.88;;;;;;;6.83;36.21;99413.33;1766316;80;21606;-70
2021/03/08 08:52:51;;;;;;;2.33;1.15;;;;;;;6.58;38.93;99431.16;1775719;80;21221;-70
2021/03/08 08:55:36;;;;;;;2.45;1.00;;;;;;;6.21;35.53;99430.11;1777771;80;21656;-69
2021/03/08 08:58:26;;;;;;;1.50;1.00;;;;;;;5.91;38.93;99441.84;1774998;80;21169;-69
2021/03/08 09:01:15;;;;;;;3.05;1.17;;;;;;;5.46;39.31;99431.81;1774373;80;21587;-73
2021/03/08 09:04:02;;;;;;;0.90;0.80;;;;;;;5.47;36.15;99428.28;1768800;80;21139;-70
2021/03/08 09:06:59;;;;;;;4.92;1.30;;;;;;;5.39;37.25;99437.64;1770342;80;21194;-69
2021/03/08 09:09:37;;;;;;;1.37;1.00;;;;;;;5.31;39.32;99430.91;1780148;80;21209;-69
2021/03/08 09:12:09;;;;;;;2.50;1.30;;;;;;;5.57;38.66;99432.38;1766749;80;21214;-70
2021/03/08 09:14:52;;;;;;;4.65;1.10;;;;;;;6.14;36.63;99442.97;1777855;79;21613;-69
2021/03/08 09:17:30;;;;;;;2.70;1.07;;;;;;;6.67;36.15;99422.13;1763960;80;21162;-69
2021/03/08 09:20:04;;;;;;;2.33;1.10;;;;;;;7.23;34.28;99438.19;1770999;80;22328;-68
2021/03/08 09:22:51;;;;;;;2.00;1.25;;;;;;;7.21;33.22;99444.78;1715767;83;21198;-68
2021/03/08 09:25:26;;;;;;;4.00;1.62;;;;;;;7.45;36.76;99443.52;1696867;83;21206;-68
2021/03/08 09:28:02;;;;;;;1.98;1.27;;;;;;;7.36;33.17;99443.38;1737934;82;21190;-69
2021/03/08 09:30:44;;;;;;;2.35;1.20;;;;;;;7.14;32.60;99436.73;1728817;82;21206;-70
2021/03/08 09:33:15;;;;;;;2.62;1.10;;;;;;;7.51;33.07;99444.63;1727003;82;21657;-69
2021/03/08 09:35:55;;;;;;;3.17;1.10;;;;;;;7.89;32.35;99447.61;1729031;82;21768;-71
2021/03/08 09:38:26;;;;;;;1.60;1.10;;;;;;;8.46;31.06;99448.97;1761878;80;21138;-70
2021/03/08 09:40:58;;;;;;;1.22;0.80;;;;;;;9.03;33.22;99442.28;1776583;80;21183;-70
2021/03/08 09:43:33;;;;;;;2.20;1.10;;;;;;;9.67;28.91;99436.50;1778954;80;21138;-70
2021/03/08 09:46:15;;;;;;;1.77;1.05;;;;;;;10.28;28.38;99432.44;1882010;76;28321;-71
2021/03/08 09:48:56;;;;;;;4.28;0.90;;;;;;;10.02;30.76;99440.63;1849346;76;21154;-72
2021/03/08 09:51:24;;;;;;;2.25;1.00;;;;;;;9.88;27.73;99447.83;1817563;77;22130;-72
2021/03/08 09:53:55;;;;;;;3.15;1.37;;;;;;;9.83;28.98;99448.04;1819498;77;21150;-73
2021/03/08 09:56:26;;;;;;;1.10;0.70;;;;;;;10.00;26.17;99439.84;1806984;77;22015;-74
2021/03/08 09:59:05;;;;;;;0.90;0.70;;;;;;;10.13;24.21;99427.84;1829872;77;21143;-73
2021/03/08 10:01:38;;;;;;;3.10;1.00;;;;;;;10.22;27.76;99440.56;1823585;77;21072;-76
2021/03/08 10:04:18;;;;;;;2.33;0.90;;;;;;;10.42;26.48;99442.31;1811842;77;21401;-74
2021/03/08 10:06:47;;;;;;;1.10;0.70;;;;;;;10.90;25.48;99434.72;1824195;77;21190;-76
2021/03/08 10:09:22;;;;;;;1.37;1.05;;;;;;;11.49;27.89;99433.48;1819238;77;21178;-75
2021/03/08 10:12:01;;;;;;;4.53;1.15;;;;;;;11.61;24.31;99436.41;1826015;77;21673;-69
2021/03/08 10:14:30;;;;;;;1.60;0.82;;;;;;;11.83;24.38;99437.00;1818259;77;21642;-67
2021/03/08 10:19:56;;;;;;;1.82;0.80;;;;;;;12.07;24.53;99442.77;1813235;78;28563;-73
2021/03/08 10:22:42;;;;;;;2.10;1.05;;;;;;;12.17;23.36;99441.34;1750400;80;21135;-74
2021/03/08 10:25:27;;;;;;;2.58;1.00;;;;;;;12.31;25.18;99440.59;1770490;80;21435;-71
2021/03/08 10:28:02;;;;;;;2.70;1.50;;;;;;;12.68;22.72;99427.12;1758867;80;21171;-74
2021/03/08 10:30:39;;;;;;;2.22;0.88;;;;;;;13.27;21.94;99428.05;1700597;83;21175;-73
2021/03/08 10:33:16;;;;;;;2.52;1.30;;;;;;;13.10;22.84;99433.50;1688465;83;21203;-71
2021/03/08 10:38:32;;;;;;;2.47;1.22;;;;;;;12.61;22.73;99439.81;1834855;75;22651;-72
2021/03/08 10:41:01;;;;;;;1.77;1.00;;;;;;;12.75;24.81;99427.98;1787009;78;21186;-72
2021/03/08 10:43:31;;;;;;;1.57;1.10;;;;;;;12.49;22.78;99425.52;1792336;79;21040;-72
2021/03/08 10:46:00;;;;;;;8.83;1.35;;;;;;;12.04;22.54;99438.98;1787538;79;21683;-72
2021/03/08 10:48:29;;;;;;;2.00;0.93;;;;;;;11.04;23.23;99427.45;1791597;79;21295;-72
2021/03/08 10:50:59;;;;;;;2.80;1.65;;;;;;;10.35;22.74;99421.59;1747918;80;21202;-73
2021/03/08 10:53:29;;;;;;;2.85;1.10;;;;;;;9.99;28.82;99431.58;1775222;80;21174;-74
2021/03/08 10:55:57;;;;;;;22.95;11.85;;;;;;;10.10;25.82;99425.36;1732780;80;21332;-75
2021/03/08 10:58:37;;;;;;;22.73;11.93;;;;;;;10.38;24.93;99424.10;1775643;80;21641;-72
2021/03/08 11:01:07;;;;;;;50.33;27.10;;;;;;;10.32;28.17;99423.06;1774968;78;21126;-72
2021/03/08 11:03:39;;;;;;;15.50;6.92;;;;;;;9.78;25.43;99427.67;1776585;78;22396;-72
2021/03/08 11:06:11;;;;;;;2.60;1.37;;;;;;;9.28;26.25;99433.38;1778253;80;21452;-73
2021/03/08 11:08:40;;;;;;;9.80;3.65;;;;;;;8.72;27.61;99430.00;1762470;80;22274;-72
2021/03/08 11:11:20;;;;;;;16.67;8.60;;;;;;;8.23;27.05;99446.35;1779461;78;21200;-72
2021/03/08 11:13:48;;;;;;;37.50;18.30;;;;;;;7.69;30.20;99445.73;1779372;80;21142;-72
2021/03/08 11:16:17;;;;;;;7.33;4.30;;;;;;;7.07;30.48;99445.70;1765876;80;21189;-72
2021/03/08 11:18:45;;;;;;;14.95;9.03;;;;;;;6.63;29.96;99444.09;1782230;78;21305;-72
2021/03/08 11:21:31;;;;;;;10.03;2.55;;;;;;;6.35;35.39;99441.45;1782778;79;21790;-72
2021/03/08 11:24:21;;;;;;;2.45;1.50;;;;;;;6.23;30.73;99437.47;1778981;80;21166;-72
2021/03/08 11:27:10;;;;;;;1.30;1.07;;;;;;;6.08;31.56;99446.17;1783121;80;21197;-71
2021/03/08 11:29:39;;;;;;;5.47;1.40;;;;;;;5.93;35.06;99439.20;1779017;80;21182;-73
2021/03/08 11:32:09;;;;;;;4.58;1.40;;;;;;;5.77;32.22;99438.78;1779547;78;22025;-72
2021/03/08 11:34:43;;;;;;;4.62;1.60;;;;;;;5.59;32.39;99439.72;1782061;80;21193;-73
2021/03/08 11:37:17;;;;;;;4.15;1.60;;;;;;;5.33;38.17;99444.33;1784805;79;21157;-72
2021/03/08 11:39:48;;;;;;;2.30;1.40;;;;;;;5.14;32.90;99433.52;1798168;79;21638;-72
2021/03/08 11:42:20;;;;;;;3.75;1.57;;;;;;;5.04;34.42;99437.27;1756675;81;21664;-72
2021/03/08 11:44:55;;;;;;;3.50;1.30;;;;;;;4.99;35.41;99439.12;1775410;80;21646;-72
2021/03/08 11:47:24;;;;;;;2.45;0.78;;;;;;;4.90;33.63;99439.35;1760686;81;21820;-73
2021/03/08 11:49:51;;;;;;;6.97;2.62;;;;;;;4.74;35.70;99434.53;1776274;80;21609;-72
2021/03/08 11:52:20;;;;;;;3.75;1.40;;;;;;;4.69;36.33;99443.34;1732728;81;21228;-72
2021/03/08 11:54:49;;;;;;;3.08;1.27;;;;;;;4.70;35.08;99445.92;1778335;80;21187;-71
2021/03/08 11:57:17;;;;;;;5.65;1.40;;;;;;;4.65;37.38;99450.41;1759233;81;21633;-71
2021/03/08 11:59:47;;;;;;;6.62;3.30;;;;;;;4.55;35.53;99451.49;1778810;80;21439;-72
2021/03/08 12:02:17;;;;;;;5.05;3.40;;;;;;;4.49;36.54;99449.05;1755296;81;21190;-72
2021/03/08 12:04:44;;;;;;;4.85;2.40;;;;;;;4.41;38.63;99451.36;1776733;80;21132;-72
2021/03/08 12:07:12;;;;;;;4.20;1.50;;;;;;;4.22;35.68;99461.80;1756028;81;21201;-72
2021/03/08 12:09:42;;;;;;;4.00;1.53;;;;;;;4.04;41.17;99462.19;1769510;80;21219;-73